Time;durP1;ratioP1;P1;durP2;ratioP2;P2;SDS_P1;SDS_P2;PMS_P1;PMS_P2;Temp;Humidity;BMP_temperature;BMP_pressure;BME280_temperature;BME280_humidity;BME280_pressure;Samples;Min_cycle;Max_cycle;Signal;HPM_P1;HPM_P2
2023/10/17 00:01:32;;;;;;;17.63;10.10;;;;;;;-146.61;100.00;58846.50;5083408;28;20557;-77
2023/10/17 00:04:11;;;;;;;14.40;8.95;;;;;;;-146.61;100.00;58846.50;5094254;28;20119;-77
2023/10/17 00:06:38;;;;;;;13.88;10.20;;;;;;;-146.61;100.00;58846.50;5089447;28;20032;-77
2023/10/17 00:09:07;;;;;;;12.57;9.27;;;;;;;-146.61;100.00;58846.50;5090683;28;20499;-79
2023/10/17 00:11:58;;;;;;;13.63;9.50;;;;;;;-146.61;100.00;58846.50;5082822;28;20056;-79
2023/10/17 00:14:27;;;;;;;10.50;9.02;;;;;;;-146.61;100.00;58846.50;5091294;28;20853;-80
2023/10/17 00:16:55;;;;;;;13.80;10.07;;;;;;;-146.61;100.00;58846.50;5090030;28;20044;-78
2023/10/17 00:19:26;;;;;;;14.65;10.35;;;;;;;-146.61;100.00;58846.50;5094969;28;20069;-77
2023/10/17 00:21:55;;;;;;;13.85;11.45;;;;;;;-146.61;100.00;58846.50;5108417;28;20052;-77
2023/10/17 00:24:23;;;;;;;22.17;11.40;;;;;;;-146.61;100.00;58846.50;5094766;28;20036;-77
2023/10/17 00:26:49;;;;;;;13.25;8.85;;;;;;;-146.61;100.00;58846.50;5094422;28;20044;-77
2023/10/17 00:29:16;;;;;;;14.73;10.10;;;;;;;-146.61;100.00;58846.50;5096609;28;20042;-77
2023/10/17 00:31:44;;;;;;;15.45;10.38;;;;;;;-146.61;100.00;58846.50;5092117;28;20039;-76
2023/10/17 00:34:16;;;;;;;17.85;10.80;;;;;;;-146.61;100.00;58846.50;5094251;28;20043;-76
2023/10/17 00:36:49;;;;;;;16.65;10.85;;;;;;;-146.61;100.00;58846.50;5087855;28;20047;-78
2023/10/17 00:39:23;;;;;;;14.73;8.85;;;;;;;-146.61;100.00;58846.50;5097486;28;20151;-76
2023/10/17 00:41:52;;;;;;;13.10;10.20;;;;;;;-146.61;100.00;58846.50;5093543;28;20059;-79
2023/10/17 00:44:30;;;;;;;14.77;10.85;;;;;;;-146.61;100.00;58846.50;5091897;28;20039;-76
2023/10/17 00:46:58;;;;;;;14.80;9.48;;;;;;;-146.61;100.00;58846.50;5098202;28;20047;-77
2023/10/17 00:49:29;;;;;;;13.98;10.75;;;;;;;-146.61;100.00;58846.50;5095467;28;20519;-76
2023/10/17 00:51:59;;;;;;;14.77;9.82;;;;;;;-146.61;100.00;58846.50;5097228;28;20087;-78
2023/10/17 00:54:35;;;;;;;17.50;10.65;;;;;;;-146.61;100.00;58846.50;5090727;28;20047;-79
2023/10/17 00:57:05;;;;;;;14.00;9.88;;;;;;;-146.61;100.00;58846.50;5109948;28;20147;-76
2023/10/17 00:59:32;;;;;;;13.50;9.25;;;;;;;-146.61;100.00;58846.50;5091693;28;20039;-77
2023/10/17 01:02:06;;;;;;;12.68;10.00;;;;;;;-146.61;100.00;58846.50;5097328;28;20701;-77
2023/10/17 01:04:33;;;;;;;16.45;10.57;;;;;;;-146.61;100.00;58846.50;5092189;28;20089;-80
2023/10/17 01:07:05;;;;;;;15.90;9.75;;;;;;;-146.61;100.00;58846.50;5093934;28;20045;-77
2023/10/17 01:09:34;;;;;;;13.45;9.43;;;;;;;-146.61;100.00;58846.50;5094959;28;20118;-75
2023/10/17 01:12:10;;;;;;;15.55;9.25;;;;;;;-146.61;100.00;58846.50;5100841;28;20039;-77
2023/10/17 01:14:40;;;;;;;13.10;9.50;;;;;;;-146.61;100.00;58846.50;5091177;28;20143;-76
2023/10/17 01:17:08;;;;;;;10.70;8.75;;;;;;;-146.61;100.00;58846.50;5100394;28;20051;-75
2023/10/17 01:19:35;;;;;;;14.02;10.00;;;;;;;-146.61;100.00;58846.50;5092661;28;20077;-77
2023/10/17 01:22:03;;;;;;;17.10;9.93;;;;;;;-146.61;100.00;58846.50;5098332;28;20431;-77
2023/10/17 01:24:29;;;;;;;17.23;9.57;;;;;;;-146.61;100.00;58846.50;5098050;28;20032;-77
2023/10/17 01:26:56;;;;;;;13.48;9.27;;;;;;;-146.61;100.00;58846.50;5098466;28;20050;-78
2023/10/17 01:29:26;;;;;;;15.68;9.82;;;;;;;-146.61;100.00;58846.50;5097337;28;20502;-76
2023/10/17 01:31:56;;;;;;;12.32;9.35;;;;;;;-146.61;100.00;58846.50;5098645;28;20047;-79
2023/10/17 01:34:22;;;;;;;21.52;10.15;;;;;;;-146.61;100.00;58846.50;5091116;28;20475;-76
2023/10/17 01:36:49;;;;;;;17.65;9.10;;;;;;;-146.61;100.00;58846.50;5095425;28;20040;-80
2023/10/17 01:39:15;;;;;;;15.63;10.95;;;;;;;-146.61;100.00;58846.50;5102292;28;20574;-77
2023/10/17 01:41:46;;;;;;;13.73;8.40;;;;;;;-146.61;100.00;58846.50;5098210;28;20048;-76
2023/10/17 01:44:12;;;;;;;15.48;9.50;;;;;;;-146.61;100.00;58846.50;5098141;28;20101;-76
2023/10/17 01:46:39;;;;;;;13.15;9.20;;;;;;;-146.61;100.00;58846.50;5098920;28;20483;-76
2023/10/17 01:49:12;;;;;;;17.60;9.07;;;;;;;-146.61;100.00;58846.50;5110616;27;20546;-79
2023/10/17 01:51:41;;;;;;;16.70;9.30;;;;;;;-146.61;100.00;58846.50;5096821;28;20555;-77
2023/10/17 01:54:13;;;;;;;19.27;10.90;;;;;;;-146.61;100.00;58846.50;5097870;28;20048;-75
2023/10/17 01:56:40;;;;;;;26.42;13.10;;;;;;;-146.61;100.00;58846.50;5095618;28;20055;-76
2023/10/17 01:59:10;;;;;;;34.33;12.38;;;;;;;-146.61;100.00;58846.50;5098952;28;20145;-76
2023/10/17 02:01:40;;;;;;;23.58;12.70;;;;;;;-146.61;100.00;58846.50;5095681;28;20035;-79
2023/10/17 02:04:12;;;;;;;32.35;12.45;;;;;;;-146.61;100.00;58846.50;5095599;28;20042;-78
2023/10/17 02:06:39;;;;;;;28.55;12.77;;;;;;;-146.61;100.00;58846.50;5095977;28;20039;-76
2023/10/17 02:09:22;;;;;;;36.20;12.95;;;;;;;-146.61;100.00;58846.50;5094901;28;20040;-79
2023/10/17 02:11:50;;;;;;;31.43;12.70;;;;;;;-146.61;100.00;58846.50;5095105;27;20608;-75
2023/10/17 02:14:17;;;;;;;33.28;13.52;;;;;;;-146.61;100.00;58846.50;5107266;27;20118;-79
2023/10/17 02:16:44;;;;;;;39.30;12.43;;;;;;;-146.61;100.00;58846.50;5096429;28;20070;-78
2023/10/17 02:19:11;;;;;;;36.92;12.27;;;;;;;-146.61;100.00;58846.50;5098091;28;20047;-78
2023/10/17 02:21:38;;;;;;;35.03;11.35;;;;;;;-146.61;100.00;58846.50;5091924;28;20043;-76
2023/10/17 02:24:09;;;;;;;26.77;10.60;;;;;;;-146.61;100.00;58846.50;5097997;28;20496;-76
2023/10/17 02:26:42;;;;;;;38.85;11.73;;;;;;;-146.61;100.00;58846.50;5096605;28;20151;-76
2023/10/17 02:29:11;;;;;;;50.90;14.23;;;;;;;-146.61;100.00;58846.50;5097103;28;20043;-76
2023/10/17 02:31:41;;;;;;;45.40;13.38;;;;;;;-146.61;100.00;58846.50;5094370;28;20474;-77
2023/10/17 02:34:10;;;;;;;28.67;10.60;;;;;;;-146.61;100.00;58846.50;5089933;28;20070;-78
2023/10/17 02:36:37;;;;;;;29.90;10.93;;;;;;;-146.61;100.00;58846.50;5093163;28;20802;-81
2023/10/17 02:39:06;;;;;;;55.80;13.05;;;;;;;-146.61;100.00;58846.50;5093895;28;20131;-80
2023/10/17 02:41:33;;;;;;;37.42;12.95;;;;;;;-146.61;100.00;58846.50;5095365;28;20411;-78
2023/10/17 02:43:59;;;;;;;35.67;12.18;;;;;;;-146.61;100.00;58846.50;5097722;28;20509;-78
2023/10/17 02:46:27;;;;;;;30.05;10.35;;;;;;;-146.61;100.00;58846.50;5098877;28;20749;-79
2023/10/17 02:48:57;;;;;;;31.05;10.25;;;;;;;-146.61;100.00;58846.50;5096084;28;20060;-78
2023/10/17 02:54:12;;;;;;;26.52;11.75;;;;;;;-146.61;100.00;58846.50;5090152;28;20070;-77
2023/10/17 02:56:46;;;;;;;26.10;10.38;;;;;;;-146.61;100.00;58846.50;5096325;28;20048;-79
2023/10/17 02:59:13;;;;;;;30.30;11.27;;;;;;;-146.61;100.00;58846.50;5097669;28;20543;-77
2023/10/17 03:01:43;;;;;;;35.42;10.18;;;;;;;-146.61;100.00;58846.50;5095537;28;20428;-80
2023/10/17 03:04:13;;;;;;;29.02;9.48;;;;;;;-146.61;100.00;58846.50;5091364;28;20048;-77
2023/10/17 03:06:41;;;;;;;34.30;10.70;;;;;;;-146.61;100.00;58846.50;5093468;28;20043;-80
2023/10/17 03:12:19;;;;;;;38.70;10.02;;;;;;;4.96;100.00;101465.16;5135622;27;20402;-77
2023/10/17 03:17:30;;;;;;;24.52;8.68;;;;;;;4.83;100.00;101463.94;5095025;27;20039;-76
2023/10/17 03:19:57;;;;;;;27.33;10.02;;;;;;;4.79;100.00;101462.97;5111711;27;20036;-76
2023/10/17 03:22:26;;;;;;;31.02;10.95;;;;;;;4.77;100.00;101471.53;5115909;27;20048;-78
2023/10/17 03:25:01;;;;;;;22.48;9.02;;;;;;;4.71;100.00;101464.47;5109651;27;20040;-76
2023/10/17 03:27:34;;;;;;;21.33;9.52;;;;;;;4.69;100.00;101462.69;5113069;27;20073;-77
2023/10/17 03:30:05;;;;;;;15.93;9.32;;;;;;;4.66;100.00;101466.06;5100279;27;20040;-76
2023/10/17 03:32:34;;;;;;;39.28;11.23;;;;;;;4.66;100.00;101472.97;5115481;27;20075;-78
2023/10/17 03:35:03;;;;;;;52.70;12.50;;;;;;;4.63;100.00;101468.56;5115337;27;20047;-77
2023/10/17 03:37:30;;;;;;;41.25;11.68;;;;;;;4.61;100.00;101467.63;5114217;27;20035;-76
2023/10/17 03:40:15;;;;;;;68.43;13.27;;;;;;;4.59;100.00;101472.78;5110851;27;20058;-77
2023/10/17 03:42:46;;;;;;;50.05;12.60;;;;;;;4.59;100.00;101469.34;5112840;27;20047;-76
2023/10/17 03:45:18;;;;;;;41.72;12.32;;;;;;;4.58;100.00;101467.56;5114645;27;20046;-77
2023/10/17 03:47:49;;;;;;;30.60;10.13;;;;;;;4.61;100.00;101460.72;5108451;27;20058;-77
2023/10/17 03:50:34;;;;;;;29.25;11.35;;;;;;;4.61;100.00;101463.31;5121021;27;20035;-76
2023/10/17 03:53:07;;;;;;;33.33;9.70;;;;;;;4.57;100.00;101461.47;5116502;27;20036;-77
2023/10/17 03:55:36;;;;;;;59.20;12.90;;;;;;;4.56;100.00;101464.03;5112748;27;20134;-79
2023/10/17 03:58:08;;;;;;;30.30;9.77;;;;;;;4.57;100.00;101466.66;5113134;27;20043;-77
2023/10/17 04:00:45;;;;;;;24.67;7.72;;;;;;;4.59;100.00;101475.38;5115324;27;20047;-78
2023/10/17 04:03:19;;;;;;;41.25;12.77;;;;;;;4.58;100.00;101472.75;5109195;27;20044;-77
2023/10/17 04:05:51;;;;;;;51.65;13.32;;;;;;;4.58;100.00;101470.16;5111731;27;20040;-76
2023/10/17 04:08:26;;;;;;;51.83;10.38;;;;;;;4.61;100.00;101473.69;5104633;27;20047;-77
2023/10/17 04:11:08;;;;;;;48.20;10.43;;;;;;;4.63;100.00;101474.63;5113009;27;20055;-77
2023/10/17 04:13:37;;;;;;;19.10;9.00;;;;;;;4.65;100.00;101479.84;5110726;27;20043;-78
2023/10/17 04:16:09;;;;;;;38.28;11.57;;;;;;;4.67;100.00;101482.47;5092178;28;20062;-78
2023/10/17 04:18:37;;;;;;;27.13;10.57;;;;;;;4.68;100.00;101479.06;5134138;27;20051;-77
2023/10/17 04:23:50;;;;;;;27.10;9.68;;;;;;;4.73;100.00;101482.66;5092641;27;20077;-76
2023/10/17 04:26:19;;;;;;;34.90;10.95;;;;;;;4.68;100.00;101479.06;5095684;27;20050;-77
2023/10/17 04:28:49;;;;;;;31.52;10.38;;;;;;;4.68;100.00;101485.16;5096000;27;20047;-77
2023/10/17 04:31:25;;;;;;;44.72;10.95;;;;;;;4.69;100.00;101478.25;5092735;27;20058;-79
2023/10/17 04:34:06;;;;;;;24.10;10.10;;;;;;;4.73;100.00;101477.47;5093055;27;20624;-76
2023/10/17 04:36:37;;;;;;;36.25;11.48;;;;;;;4.73;100.00;101491.34;5112238;27;20127;-76
2023/10/17 04:39:18;;;;;;;39.25;11.38;;;;;;;4.69;100.00;101486.88;5095363;27;20495;-78
2023/10/17 04:42:04;;;;;;;44.63;10.13;;;;;;;4.71;100.00;101487.81;5096938;27;20554;-77
2023/10/17 04:44:34;;;;;;;26.38;10.52;;;;;;;4.66;100.00;101486.81;5084681;28;20069;-78
2023/10/17 04:47:17;;;;;;;31.95;10.77;;;;;;;4.64;100.00;101486.78;5098437;27;20048;-77
2023/10/17 04:49:44;;;;;;;38.38;10.32;;;;;;;4.66;100.00;101492.00;5082737;27;20051;-77
2023/10/17 04:52:18;;;;;;;18.92;8.57;;;;;;;4.71;100.00;101485.22;5098376;27;20040;-77
2023/10/17 04:54:43;;;;;;;38.28;10.65;;;;;;;4.75;100.00;101483.59;5091720;27;20047;-77
2023/10/17 04:57:15;;;;;;;28.70;9.90;;;;;;;4.74;100.00;101474.94;5080470;28;20078;-77
2023/10/17 04:59:51;;;;;;;27.90;8.80;;;;;;;4.80;100.00;101476.84;5100055;27;20107;-80
2023/10/17 05:08:21;;;;;;;31.05;10.88;;;;;;;4.68;100.00;101461.81;5101657;27;20341;-78
2023/10/17 06:16:54;;;;;;;11.15;6.65;;;;;;;5.03;100.00;101531.06;5077491;27;20063;-79
2023/10/17 06:19:24;;;;;;;15.90;8.55;;;;;;;5.12;100.00;101527.03;5098901;27;20032;-78
2023/10/17 06:24:47;;;;;;;16.20;8.50;;;;;;;5.12;100.00;101537.41;5072793;27;20032;-77
2023/10/17 06:33:02;;;;;;;30.90;8.40;;;;;;;5.12;100.00;101536.50;5089814;28;20055;-76
2023/10/17 06:35:31;;;;;;;15.43;8.63;;;;;;;5.14;100.00;101540.03;5090931;27;20054;-77
2023/10/17 06:38:00;;;;;;;23.25;8.88;;;;;;;5.24;100.00;101543.75;5075231;28;20044;-79
2023/10/17 06:40:32;;;;;;;33.13;9.05;;;;;;;5.17;100.00;101542.72;5094266;27;20050;-80
2023/10/17 06:43:00;;;;;;;35.47;9.18;;;;;;;5.21;100.00;101544.53;5090324;27;20835;-79
2023/10/17 06:45:29;;;;;;;10.10;6.97;;;;;;;5.25;100.00;101548.13;5088060;28;20502;-76
2023/10/17 06:47:58;;;;;;;13.90;6.90;;;;;;;5.34;100.00;101556.16;5088921;28;20044;-77
2023/10/17 06:53:15;;;;;;;16.92;8.00;;;;;;;5.16;100.00;101555.66;5091755;27;20143;-78
2023/10/17 06:55:44;;;;;;;13.80;7.60;;;;;;;5.28;100.00;101559.47;5092281;27;20812;-79
2023/10/17 06:58:11;;;;;;;22.92;8.00;;;;;;;5.33;100.00;101554.38;5098097;27;20155;-79
2023/10/17 07:00:49;;;;;;;13.73;7.70;;;;;;;5.40;100.00;101555.47;5076731;28;20047;-79
2023/10/17 07:03:16;;;;;;;27.42;10.65;;;;;;;5.27;100.00;101549.06;5080572;28;20051;-79
2023/10/17 07:05:49;;;;;;;35.53;12.27;;;;;;;5.37;100.00;101556.25;5089653;28;20134;-79
2023/10/17 07:08:19;;;;;;;23.40;10.88;;;;;;;5.37;100.00;101550.16;5091330;28;20094;-78
2023/10/17 07:11:02;;;;;;;23.55;10.98;;;;;;;5.36;100.00;101545.81;5096551;28;20051;-78
2023/10/17 07:14:12;;;;;;;23.85;12.23;;;;;;;5.53;100.00;101546.25;5084311;28;20043;-79
2023/10/17 07:16:57;;;;;;;66.90;13.73;;;;;;;5.40;100.00;101550.25;5087738;28;20044;-77
2023/10/17 07:22:08;;;;;;;18.17;11.05;;;;;;;5.50;100.00;101547.06;5095750;28;20080;-78
2023/10/17 07:24:36;;;;;;;27.27;11.00;;;;;;;5.77;100.00;101548.59;5089454;28;20120;-77
2023/10/17 07:27:18;;;;;;;25.45;12.45;;;;;;;5.87;100.00;101531.53;5091896;28;20039;-79
2023/10/17 07:29:52;;;;;;;27.42;13.02;;;;;;;5.89;100.00;101540.22;5078679;28;20051;-77
2023/10/17 07:32:25;;;;;;;;;;;;;;;5.70;100.00;101542.38;5091852;28;20043;-77
2023/10/17 07:34:52;;;;;;;41.72;11.00;;;;;;;5.47;100.00;101544.38;5091748;28;19924;-78
2023/10/17 07:37:23;;;;;;;17.23;9.75;;;;;;;5.35;100.00;101544.06;5100582;28;20047;-77
2023/10/17 07:42:40;;;;;;;20.67;11.13;;;;;;;5.54;100.00;101540.22;5088779;28;20039;-77
2023/10/17 07:45:15;;;;;;;22.25;10.40;;;;;;;5.51;100.00;101546.22;5074572;28;20054;-78
2023/10/17 07:47:51;;;;;;;21.73;10.38;;;;;;;5.81;100.00;101542.63;5090713;28;20157;-78
2023/10/17 07:50:20;;;;;;;21.08;10.77;;;;;;;6.11;100.00;101539.97;5093666;28;20439;-77
2023/10/17 07:52:50;;;;;;;22.33;11.02;;;;;;;6.36;100.00;101537.94;5091507;28;20076;-77
2023/10/17 07:55:23;;;;;;;19.52;11.02;;;;;;;6.52;100.00;101533.94;5097921;28;20047;-78
2023/10/17 07:58:06;;;;;;;23.83;11.20;;;;;;;6.43;100.00;101523.34;5093258;27;20156;-79
2023/10/17 08:00:34;;;;;;;19.52;11.57;;;;;;;6.77;100.00;101529.25;5079821;28;20040;-77
2023/10/17 08:03:07;;;;;;;21.10;11.40;;;;;;;6.58;100.00;101527.97;5088016;28;20052;-77
2023/10/17 08:05:37;;;;;;;22.77;12.02;;;;;;;6.91;100.00;101526.91;5096757;27;20077;-77
2023/10/17 08:08:08;;;;;;;18.27;11.20;;;;;;;7.55;100.00;101531.63;5100737;27;20299;-76
2023/10/17 08:10:39;;;;;;;20.30;11.13;;;;;;;7.96;100.00;101534.03;5110089;27;20062;-79
2023/10/17 08:13:07;;;;;;;18.77;12.00;;;;;;;8.10;100.00;101540.34;5104285;27;20493;-77
2023/10/17 08:15:38;;;;;;;16.17;11.90;;;;;;;7.93;100.00;101532.25;5083455;28;20058;-79
2023/10/17 08:18:14;;;;;;;25.75;12.93;;;;;;;7.59;100.00;101538.63;5093871;27;20059;-76
2023/10/17 08:20:54;;;;;;;17.95;11.88;;;;;;;7.56;100.00;101536.84;5093089;27;20073;-80
2023/10/17 08:23:20;;;;;;;16.83;10.40;;;;;;;7.68;100.00;101530.06;5094972;27;20147;-78
2023/10/17 08:25:53;;;;;;;24.67;14.55;;;;;;;7.30;100.00;101533.78;5092854;27;20171;-80
2023/10/17 08:28:36;;;;;;;21.98;13.90;;;;;;;7.23;100.00;101534.50;5099513;27;20118;-75
2023/10/17 08:31:22;;;;;;;24.90;13.90;;;;;;;7.14;100.00;101532.59;5101204;27;20082;-77
2023/10/17 08:34:12;;;;;;;19.00;12.35;;;;;;;6.95;100.00;101534.84;5082953;28;20138;-79
2023/10/17 08:36:47;;;;;;;21.55;12.43;;;;;;;6.55;100.00;101533.13;5097761;27;20088;-78
2023/10/17 08:39:39;;;;;;;20.35;12.18;;;;;;;6.55;100.00;101539.19;5094530;27;20039;-78
2023/10/17 08:42:05;;;;;;;17.77;11.90;;;;;;;6.64;100.00;101538.53;5098298;27;20047;-78
2023/10/17 08:44:38;;;;;;;22.42;12.70;;;;;;;6.91;100.00;101539.94;5093975;27;20051;-78
2023/10/17 08:47:07;;;;;;;22.58;12.55;;;;;;;7.04;100.00;101546.28;5094272;27;20060;-77
2023/10/17 08:49:34;;;;;;;18.02;11.15;;;;;;;7.36;100.00;101540.81;5098705;28;20384;-78
2023/10/17 08:52:01;;;;;;;16.52;11.60;;;;;;;7.75;100.00;101530.22;5083313;27;20577;-76
2023/10/17 08:54:28;;;;;;;19.67;11.45;;;;;;;8.03;100.00;101528.06;5099070;27;20047;-78
2023/10/17 08:56:56;;;;;;;21.98;12.20;;;;;;;8.39;100.00;101536.41;5080805;28;20842;-78
2023/10/17 08:59:45;;;;;;;16.30;11.25;;;;;;;8.59;99.28;101531.50;5101401;27;20039;-77
2023/10/17 09:02:25;;;;;;;14.65;10.38;;;;;;;8.64;98.11;101532.44;5082923;28;20071;-79
2023/10/17 09:04:52;;;;;;;15.80;11.02;;;;;;;8.19;97.59;101529.16;5093185;27;20050;-78
2023/10/17 09:07:32;;;;;;;15.73;11.15;;;;;;;7.98;100.00;101526.22;5098682;27;20047;-80
2023/10/17 09:10:04;;;;;;;18.83;12.10;;;;;;;8.51;100.00;101527.91;5095828;27;20612;-77
2023/10/17 09:12:43;;;;;;;15.65;10.80;;;;;;;8.44;98.82;101526.91;5096959;27;20039;-77
2023/10/17 09:15:30;;;;;;;17.77;12.50;;;;;;;8.36;98.94;101520.72;5084574;28;20735;-77
2023/10/17 09:18:00;;;;;;;19.58;12.75;;;;;;;8.21;98.26;101529.19;5078817;28;20047;-79
2023/10/17 09:20:41;;;;;;;16.58;12.15;;;;;;;8.09;99.33;101528.13;5084126;27;20143;-79
2023/10/17 09:23:27;;;;;;;16.60;11.45;;;;;;;7.95;100.00;101525.34;5097470;27;20052;-80
2023/10/17 09:25:58;;;;;;;17.77;11.52;;;;;;;8.21;100.00;101527.47;5101844;27;20054;-79
2023/10/17 09:28:25;;;;;;;16.38;10.65;;;;;;;8.16;100.00;101531.75;5110497;27;20055;-80
2023/10/17 09:31:06;;;;;;;19.05;12.40;;;;;;;8.32;100.00;101527.63;5109881;27;20587;-79
2023/10/17 09:33:35;;;;;;;17.25;12.05;;;;;;;8.28;98.42;101526.69;5096865;27;20046;-77
2023/10/17 09:36:05;;;;;;;17.38;12.00;;;;;;;8.19;99.26;101526.56;5078732;28;20112;-78
2023/10/17 09:38:41;;;;;;;16.92;12.52;;;;;;;8.21;99.58;101530.09;5102274;27;20043;-76
2023/10/17 09:41:08;;;;;;;18.67;12.27;;;;;;;8.16;100.00;101523.03;5097554;27;20043;-79
2023/10/17 09:43:36;;;;;;;17.58;11.85;;;;;;;8.25;100.00;101517.94;5097486;27;20047;-79
2023/10/17 09:46:04;;;;;;;19.30;13.40;;;;;;;8.38;100.00;101514.69;5093609;27;20554;-76
2023/10/17 09:48:41;;;;;;;22.92;14.07;;;;;;;8.42;100.00;101518.19;5079829;28;20498;-78
2023/10/17 09:51:12;;;;;;;20.27;13.35;;;;;;;8.24;100.00;101511.84;5094553;27;20198;-77
2023/10/17 09:53:41;;;;;;;21.73;13.85;;;;;;;8.34;100.00;101510.25;5097632;27;20127;-76
2023/10/17 09:56:14;;;;;;;17.33;13.30;;;;;;;8.46;100.00;101509.59;5093737;27;20502;-77
2023/10/17 09:58:46;;;;;;;;;;;;;;;8.31;99.92;101515.44;5102705;27;20047;-77
2023/10/17 10:01:21;;;;;;;17.55;10.82;;;;;;;8.34;100.00;101522.41;5098874;27;20049;-79
2023/10/17 10:03:51;;;;;;;10.80;7.47;;;;;;;8.44;100.00;101522.56;5101703;27;20070;-80
2023/10/17 10:06:30;;;;;;;10.63;7.95;;;;;;;8.59;99.84;101513.22;5095990;27;20108;-77
2023/10/17 10:09:19;;;;;;;11.25;7.97;;;;;;;8.33;99.19;101518.94;5098464;28;20112;-78
2023/10/17 10:11:52;;;;;;;10.23;7.68;;;;;;;8.45;100.00;101507.81;5090229;27;20181;-77
2023/10/17 10:14:24;;;;;;;11.00;7.80;;;;;;;8.41;100.00;101504.28;5099032;27;20043;-81
2023/10/17 10:16:57;;;;;;;9.88;8.60;;;;;;;8.27;100.00;101509.28;5099609;27;20055;-77
2023/10/17 10:19:27;;;;;;;9.82;8.00;;;;;;;8.34;100.00;101505.03;5099843;27;20108;-76
2023/10/17 10:22:02;;;;;;;11.98;8.45;;;;;;;8.52;100.00;101511.41;5100230;27;20281;-78
2023/10/17 10:24:33;;;;;;;12.95;9.20;;;;;;;8.39;100.00;101508.56;5082129;28;20058;-76
2023/10/17 10:27:14;;;;;;;11.90;8.75;;;;;;;8.36;100.00;101512.91;5098185;27;20047;-80
2023/10/17 10:29:41;;;;;;;11.52;8.75;;;;;;;8.40;100.00;101510.34;5099737;27;20071;-78
2023/10/17 10:32:26;;;;;;;12.32;9.52;;;;;;;8.43;100.00;101514.72;5093171;27;20035;-77
2023/10/17 10:34:54;;;;;;;12.48;9.50;;;;;;;8.41;100.00;101509.50;5097587;28;20050;-77
2023/10/17 10:37:21;;;;;;;17.88;10.73;;;;;;;8.48;100.00;101499.19;5099334;27;20186;-77
2023/10/17 10:40:17;;;;;;;12.50;10.07;;;;;;;8.57;100.00;101505.38;5100617;27;20036;-78
2023/10/17 10:42:50;;;;;;;16.60;9.45;;;;;;;8.28;100.00;101498.00;5098043;28;20116;-76
2023/10/17 10:45:47;;;;;;;13.50;9.45;;;;;;;8.27;100.00;101493.63;5102625;27;20035;-77
2023/10/17 10:48:18;;;;;;;13.32;9.95;;;;;;;8.27;100.00;101501.47;5101036;27;20047;-77
2023/10/17 10:50:48;;;;;;;14.85;11.02;;;;;;;8.09;100.00;101501.19;5106282;27;20039;-77
2023/10/17 10:53:35;;;;;;;15.95;11.18;;;;;;;7.93;100.00;101500.09;5088621;27;20050;-80
2023/10/17 10:56:11;;;;;;;19.52;11.88;;;;;;;7.86;100.00;101506.94;5104572;27;20039;-77
2023/10/17 10:58:51;;;;;;;19.17;11.85;;;;;;;7.89;100.00;101496.56;5104554;28;20078;-79
2023/10/17 11:01:20;;;;;;;22.88;12.02;;;;;;;7.77;100.00;101502.44;5084305;28;20052;-78
2023/10/17 11:03:50;;;;;;;17.92;11.80;;;;;;;8.15;100.00;101500.41;5101950;28;20046;-77
2023/10/17 11:06:27;;;;;;;15.80;12.07;;;;;;;8.35;100.00;101498.09;5097357;27;20047;-77
2023/10/17 11:08:54;;;;;;;15.40;10.98;;;;;;;8.14;100.00;101499.53;5097038;28;20130;-79
2023/10/17 11:11:21;;;;;;;18.58;11.63;;;;;;;8.45;100.00;101494.75;5079475;28;20059;-76
2023/10/17 11:13:54;;;;;;;20.73;12.60;;;;;;;8.47;100.00;101490.44;5079889;28;20054;-79
2023/10/17 11:16:28;;;;;;;17.77;11.25;;;;;;;8.57;100.00;101494.94;5097860;28;20047;-76
2023/10/17 11:18:55;;;;;;;19.25;13.05;;;;;;;8.67;100.00;101497.66;5095111;28;20036;-76
2023/10/17 11:21:25;;;;;;;18.42;11.68;;;;;;;8.67;100.00;101490.72;5099312;28;20443;-77
2023/10/17 11:24:00;;;;;;;19.92;12.43;;;;;;;8.65;100.00;101488.94;5094208;28;20039;-76
2023/10/17 11:26:39;;;;;;;15.68;11.32;;;;;;;8.48;100.00;101483.53;5098260;28;20105;-78
2023/10/17 11:29:07;;;;;;;18.95;11.68;;;;;;;8.60;100.00;101486.28;5077636;28;20074;-77
2023/10/17 11:31:34;;;;;;;14.38;9.82;;;;;;;8.59;99.18;101490.63;5094151;28;20047;-76
2023/10/17 11:34:07;;;;;;;15.00;9.75;;;;;;;8.31;99.74;101478.91;5081503;27;20043;-77
2023/10/17 11:36:52;;;;;;;13.15;9.70;;;;;;;8.51;99.39;101481.81;5099812;27;20126;-76
2023/10/17 11:39:20;;;;;;;18.48;10.63;;;;;;;8.66;97.71;101483.75;5104335;27;20589;-76
2023/10/17 11:41:53;;;;;;;15.07;10.43;;;;;;;8.85;97.81;101482.25;5103150;27;20051;-77
2023/10/17 11:44:24;;;;;;;;;;;;;;;8.85;95.70;101482.25;5119202;27;20040;-80
2023/10/17 11:46:58;;;;;;;15.60;10.23;;;;;;;9.07;95.70;101485.06;5106514;27;19923;-77
2023/10/17 11:49:30;;;;;;;16.40;10.55;;;;;;;9.10;94.68;101485.97;5089183;28;20678;-80
2023/10/17 11:52:10;;;;;;;16.25;11.00;;;;;;;9.28;94.31;101476.56;5097641;27;20067;-78
2023/10/17 11:55:04;;;;;;;13.60;10.80;;;;;;;9.52;91.39;101472.44;5104632;27;20054;-79
2023/10/17 11:57:31;;;;;;;18.10;11.70;;;;;;;9.40;91.73;101466.25;5102270;27;20040;-76
2023/10/17 12:00:19;;;;;;;13.93;10.55;;;;;;;9.30;92.22;101469.63;5103060;27;20592;-76
2023/10/17 12:02:49;;;;;;;15.82;10.10;;;;;;;9.42;93.44;101463.63;5096887;27;20093;-75
2023/10/17 12:05:18;;;;;;;14.18;9.88;;;;;;;9.52;91.85;101478.53;5076955;28;20048;-79
2023/10/17 12:07:50;;;;;;;16.58;11.10;;;;;;;9.63;91.74;101468.16;5097561;27;20039;-78
2023/10/17 12:10:17;;;;;;;17.35;10.70;;;;;;;9.29;91.55;101470.50;5086128;28;20052;-78
2023/10/17 12:12:44;;;;;;;14.60;10.13;;;;;;;9.17;93.58;101475.59;5097187;27;20585;-78
2023/10/17 12:15:13;;;;;;;13.20;10.52;;;;;;;9.25;92.76;101464.34;5097815;27;20446;-77
2023/10/17 12:17:40;;;;;;;18.13;11.50;;;;;;;9.22;92.82;101463.47;5082714;28;20368;-77
2023/10/17 12:20:10;;;;;;;14.68;10.77;;;;;;;9.10;94.32;101464.22;5099866;27;20040;-79
2023/10/17 12:22:38;;;;;;;20.48;11.40;;;;;;;9.20;94.81;101454.72;5100839;27;20039;-78
2023/10/17 12:25:05;;;;;;;14.95;10.07;;;;;;;9.29;92.46;101460.03;5098193;27;20047;-78
2023/10/17 12:27:32;;;;;;;12.80;9.43;;;;;;;9.31;90.96;101450.50;5099469;27;20032;-79
2023/10/17 12:29:59;;;;;;;12.98;9.93;;;;;;;9.44;91.17;101449.72;5102314;27;20051;-79
2023/10/17 12:32:26;;;;;;;19.33;10.57;;;;;;;9.56;90.33;101450.69;5096696;27;20223;-79
2023/10/17 12:34:57;;;;;;;13.93;9.00;;;;;;;9.43;90.44;101444.50;5100861;27;20032;-78
2023/10/17 12:37:24;;;;;;;13.60;8.82;;;;;;;9.28;90.37;101450.44;5087116;28;20406;-78
2023/10/17 12:39:52;;;;;;;15.40;9.95;;;;;;;9.21;91.18;101440.81;5086105;28;20038;-79
2023/10/17 12:42:20;;;;;;;14.43;10.55;;;;;;;9.27;90.72;101441.75;5085154;27;20406;-80
2023/10/17 12:44:46;;;;;;;16.13;9.05;;;;;;;9.30;90.90;101434.81;5095069;27;20599;-79
2023/10/17 12:47:13;;;;;;;16.73;10.77;;;;;;;9.20;90.71;101419.00;5098080;27;20040;-80
2023/10/17 12:49:39;;;;;;;14.25;10.00;;;;;;;9.16;91.50;101398.97;5102953;27;20043;-79
2023/10/17 12:52:07;;;;;;;16.45;11.00;;;;;;;9.07;92.39;101396.28;5092524;27;20036;-79
2023/10/17 12:54:34;;;;;;;18.15;11.60;;;;;;;9.08;92.91;101401.50;5094038;27;20627;-79
2023/10/17 12:57:06;;;;;;;12.98;9.48;;;;;;;9.25;91.65;101399.03;5100224;27;20122;-76
2023/10/17 12:59:36;;;;;;;18.08;11.77;;;;;;;9.10;92.31;101399.78;5103683;27;20047;-79
2023/10/17 13:02:06;;;;;;;14.35;11.00;;;;;;;9.08;92.49;101400.63;5100057;27;20751;-78
2023/10/17 13:04:32;;;;;;;13.93;10.82;;;;;;;9.22;91.21;101393.78;5104435;27;20123;-76
2023/10/17 13:07:00;;;;;;;15.82;10.60;;;;;;;9.18;90.20;101399.84;5100294;27;20024;-80
2023/10/17 13:09:31;;;;;;;12.02;8.52;;;;;;;9.11;90.19;101398.03;5104129;27;20096;-79
2023/10/17 13:11:58;;;;;;;16.92;9.10;;;;;;;9.19;88.72;101396.41;5096306;27;20046;-79